Time;durP1;ratioP1;P1;durP2;ratioP2;P2;SDS_P1;SDS_P2;PMS_P1;PMS_P2;Temp;Humidity;BMP_temperature;BMP_pressure;BME280_temperature;BME280_humidity;BME280_pressure;Samples;Min_cycle;Max_cycle;Signal;HPM_P1;HPM_P2
2023/10/08 00:00:46;;;;;;;8.30;2.70;;;;;;;17.08;95.93;101706.81;2055998;28;20440;-68
2023/10/08 00:01:47;;;;;;;4.10;2.27;;;;;;;17.12;96.34;101703.91;2056570;28;20468;-67
2023/10/08 00:02:47;;;;;;;5.50;2.37;;;;;;;17.09;96.00;101704.78;2055500;28;20519;-67
2023/10/08 00:03:53;;;;;;;4.27;2.03;;;;;;;17.10;95.88;101695.16;2056035;28;20262;-67
2023/10/08 00:05:00;;;;;;;4.17;2.13;;;;;;;16.92;96.03;101672.56;2056414;28;20731;-67
2023/10/08 00:06:14;;;;;;;10.60;2.83;;;;;;;17.12;96.77;101699.06;2056159;28;20597;-67
2023/10/08 00:07:15;;;;;;;3.20;1.77;;;;;;;16.98;96.22;101673.56;2055690;28;20449;-67
2023/10/08 00:08:16;;;;;;;5.20;2.10;;;;;;;17.12;96.73;101704.66;2055108;28;20454;-67
2023/10/08 00:09:20;;;;;;;3.90;1.60;;;;;;;17.17;96.35;101700.53;2056330;28;20226;-67
2023/10/08 00:10:26;;;;;;;5.40;2.50;;;;;;;17.13;95.92;101692.25;2055990;28;20510;-67
2023/10/08 00:11:29;;;;;;;5.63;2.70;;;;;;;17.12;97.09;101693.47;2055957;28;20454;-67
2023/10/08 00:12:29;;;;;;;3.90;1.93;;;;;;;16.89;96.44;101651.84;2056016;28;20995;-67
2023/10/08 00:13:30;;;;;;;5.80;2.50;;;;;;;17.17;96.77;101684.50;2056019;28;20861;-67
2023/10/08 00:14:43;;;;;;;4.33;2.00;;;;;;;16.74;96.69;101627.56;2056273;28;20176;-67
2023/10/08 00:15:54;;;;;;;3.90;2.10;;;;;;;17.14;97.09;101679.81;2055608;28;20169;-67
2023/10/08 00:16:55;;;;;;;4.10;2.23;;;;;;;17.19;98.11;101675.63;2054483;28;20790;-67
2023/10/08 00:17:58;;;;;;;7.33;2.37;;;;;;;17.24;97.25;101675.84;2055532;28;20418;-67
2023/10/08 00:19:07;;;;;;;8.10;3.00;;;;;;;16.68;95.78;101581.78;2056068;28;21006;-67
2023/10/08 00:20:15;;;;;;;4.83;2.40;;;;;;;17.22;97.00;101672.72;2059962;28;20439;-67
2023/10/08 00:21:25;;;;;;;4.47;2.40;;;;;;;16.84;97.76;101615.22;2056310;28;20898;-67
2023/10/08 00:22:26;;;;;;;5.20;2.03;;;;;;;16.65;97.98;101591.88;2056047;28;20461;-68
2023/10/08 00:23:26;;;;;;;3.70;2.23;;;;;;;17.17;97.85;101669.72;2059564;28;20475;-67
2023/10/08 00:24:28;;;;;;;4.60;2.30;;;;;;;17.14;97.72;101676.22;2058279;28;20558;-68
2023/10/08 00:25:30;;;;;;;5.07;2.00;;;;;;;17.18;96.96;101674.09;2056342;28;20206;-67
2023/10/08 00:26:31;;;;;;;5.50;1.93;;;;;;;17.16;96.74;101663.31;2055732;28;20454;-68
2023/10/08 00:27:38;;;;;;;4.63;2.30;;;;;;;17.13;96.63;101671.84;2055152;28;20428;-67
2023/10/08 00:28:42;;;;;;;4.30;2.30;;;;;;;17.16;97.23;101668.94;2056104;28;20173;-67
2023/10/08 00:29:43;;;;;;;3.90;2.03;;;;;;;17.03;97.05;101656.97;2056279;28;20462;-67
2023/10/08 00:30:44;;;;;;;5.07;2.37;;;;;;;17.09;97.92;101671.97;2055143;28;20499;-67
2023/10/08 00:31:45;;;;;;;4.27;2.20;;;;;;;17.13;98.29;101674.66;2056258;28;20434;-68
2023/10/08 00:32:46;;;;;;;5.03;2.33;;;;;;;16.56;98.73;101585.41;2055935;28;20332;-67
2023/10/08 00:33:46;;;;;;;4.60;2.17;;;;;;;17.06;99.17;101656.06;2056194;28;20457;-68
2023/10/08 00:34:47;;;;;;;4.47;1.90;;;;;;;17.14;98.94;101665.00;2055868;28;20610;-67
2023/10/08 00:35:47;;;;;;;4.47;2.17;;;;;;;17.13;98.57;101664.25;2055820;28;20213;-68
2023/10/08 00:36:49;;;;;;;5.57;1.90;;;;;;;17.15;98.75;101664.56;2055708;28;20190;-67
2023/10/08 00:37:49;;;;;;;5.20;2.40;;;;;;;17.07;99.36;101646.41;2054920;28;20207;-67
2023/10/08 00:38:54;;;;;;;3.83;2.00;;;;;;;17.13;100.00;101661.44;2055798;28;20468;-67
2023/10/08 00:39:56;;;;;;;3.93;2.37;;;;;;;17.14;100.00;101659.41;2056073;28;20162;-67
2023/10/08 00:40:57;;;;;;;5.27;2.07;;;;;;;17.15;100.00;101658.97;2048403;28;20429;-67
2023/10/08 00:42:04;;;;;;;3.53;1.87;;;;;;;17.14;100.00;101667.81;2055006;28;20543;-67
2023/10/08 00:43:09;;;;;;;4.50;2.10;;;;;;;16.93;100.00;101626.53;2055936;28;20758;-67
2023/10/08 00:44:47;;;;;;;4.03;1.83;;;;;;;17.14;100.00;101667.81;2055983;28;20537;-67
2023/10/08 00:45:43;;;;;;;3.50;1.80;;;;;;;17.07;100.00;101665.25;2052066;28;20432;-67
2023/10/08 00:46:50;;;;;;;4.23;2.13;;;;;;;17.06;100.00;101658.09;2055944;28;20900;-67
2023/10/08 00:47:54;;;;;;;3.33;1.97;;;;;;;17.06;100.00;101661.66;2055380;28;20469;-67
2023/10/08 00:48:58;;;;;;;3.77;1.93;;;;;;;17.07;100.00;101656.84;2055756;28;20454;-67
2023/10/08 00:50:09;;;;;;;3.97;2.07;;;;;;;17.02;100.00;101663.81;2056279;28;20531;-67
2023/10/08 00:51:25;;;;;;;4.10;1.87;;;;;;;17.02;100.00;101663.03;2055954;28;20457;-67
2023/10/08 00:52:29;;;;;;;3.93;1.87;;;;;;;17.01;100.00;101662.25;2048436;28;20851;-67
2023/10/08 00:53:31;;;;;;;4.43;1.90;;;;;;;17.03;100.00;101661.78;2055219;28;20458;-67
2023/10/08 00:54:49;;;;;;;4.37;2.00;;;;;;;16.99;100.00;101661.91;2055952;28;20943;-67
2023/10/08 00:56:04;;;;;;;4.00;2.10;;;;;;;16.94;100.00;101661.69;2056016;28;20900;-67
2023/10/08 00:57:05;;;;;;;4.20;2.20;;;;;;;16.94;100.00;101653.28;2047837;29;20417;-67
2023/10/08 00:58:09;;;;;;;3.17;1.83;;;;;;;16.94;100.00;101656.09;2054409;28;20550;-67
2023/10/08 00:59:15;;;;;;;3.40;1.80;;;;;;;16.95;100.00;101660.47;2055937;28;20925;-67
2023/10/08 01:00:21;;;;;;;3.10;1.63;;;;;;;16.87;100.00;101647.94;2056042;28;20841;-67
2023/10/08 01:01:22;;;;;;;3.83;2.17;;;;;;;16.94;100.00;101658.88;2055990;28;20881;-68
2023/10/08 01:02:42;;;;;;;3.30;1.63;;;;;;;16.89;100.00;101656.66;2055933;28;20458;-68
2023/10/08 01:03:44;;;;;;;3.40;2.10;;;;;;;16.79;99.96;101652.19;2055875;28;20527;-68
2023/10/08 01:04:45;;;;;;;3.20;1.90;;;;;;;16.55;99.49;101615.41;2055903;28;20449;-68
2023/10/08 01:05:49;;;;;;;3.53;2.10;;;;;;;16.91;99.63;101660.56;2055679;28;20452;-67
2023/10/08 01:06:56;;;;;;;3.37;1.93;;;;;;;16.92;98.94;101661.38;2055409;28;20197;-68
2023/10/08 01:07:59;;;;;;;2.53;1.73;;;;;;;16.92;100.00;101659.38;2055017;28;20543;-68
2023/10/08 01:09:09;;;;;;;3.53;1.73;;;;;;;16.88;99.21;101657.13;2055127;28;20430;-68
2023/10/08 01:10:13;;;;;;;3.90;1.83;;;;;;;16.86;98.32;101654.78;2055161;28;20242;-68
2023/10/08 01:13:11;;;;;;;3.50;1.70;;;;;;;16.84;100.00;101654.44;2048712;28;20464;-68
2023/10/08 01:14:11;;;;;;;3.23;1.80;;;;;;;16.91;98.42;101654.22;2056936;28;20512;-68
2023/10/08 01:15:28;;;;;;;3.90;2.00;;;;;;;16.85;97.75;101651.19;2057477;28;20441;-68
2023/10/08 01:16:32;;;;;;;3.33;1.80;;;;;;;16.89;96.74;101656.66;2057323;28;20731;-68
2023/10/08 01:17:42;;;;;;;3.20;1.50;;;;;;;16.91;96.01;101654.97;2056358;28;20826;-68
2023/10/08 01:18:50;;;;;;;5.40;2.10;;;;;;;16.88;98.02;101649.50;2057492;28;20807;-68
2023/10/08 01:19:56;;;;;;;4.20;2.20;;;;;;;16.85;99.00;101662.38;2057469;28;20489;-68
2023/10/08 01:21:04;;;;;;;4.27;1.80;;;;;;;16.86;100.00;101658.34;2057581;28;20474;-68
2023/10/08 01:22:08;;;;;;;4.13;2.03;;;;;;;16.86;100.00;101660.38;2057362;28;20456;-68
2023/10/08 01:23:16;;;;;;;3.23;1.87;;;;;;;16.78;100.00;101654.22;2057389;28;20494;-68
2023/10/08 01:24:17;;;;;;;3.17;1.87;;;;;;;16.83;100.00;101657.69;2057415;28;20944;-68
2023/10/08 01:25:24;;;;;;;4.03;1.90;;;;;;;16.83;99.09;101654.91;2057181;28;20898;-68
2023/10/08 01:26:25;;;;;;;5.10;2.57;;;;;;;16.84;97.69;101654.44;2057262;28;20196;-68
2023/10/08 01:27:34;;;;;;;3.50;1.97;;;;;;;16.83;96.94;101650.88;2056202;28;20934;-68
2023/10/08 01:28:34;;;;;;;3.67;2.00;;;;;;;16.81;97.65;101652.53;2056496;28;20172;-68
2023/10/08 01:29:36;;;;;;;4.77;2.17;;;;;;;16.77;99.83;101651.88;2057259;28;20419;-67
2023/10/08 01:30:41;;;;;;;3.73;1.67;;;;;;;16.79;99.17;101655.78;2057387;28;20542;-67
2023/10/08 01:31:42;;;;;;;4.70;1.80;;;;;;;16.23;99.32;101568.06;2057601;28;20517;-68
2023/10/08 01:32:43;;;;;;;4.47;2.00;;;;;;;16.66;99.85;101641.00;2057353;28;20484;-67
2023/10/08 01:33:56;;;;;;;4.73;1.80;;;;;;;16.69;100.00;101645.72;2056985;28;20198;-68
2023/10/08 01:34:59;;;;;;;3.63;1.60;;;;;;;16.67;100.00;101641.81;2057301;28;20513;-68
2023/10/08 01:36:03;;;;;;;2.83;1.73;;;;;;;16.67;100.00;101651.00;2057398;28;20520;-68
2023/10/08 01:37:08;;;;;;;2.80;1.67;;;;;;;16.40;100.00;101608.69;2056798;28;20517;-68
2023/10/08 01:38:16;;;;;;;4.63;2.17;;;;;;;16.57;100.00;101631.75;2055994;28;20485;-67
2023/10/08 01:39:17;;;;;;;3.20;1.70;;;;;;;16.65;100.00;101638.69;2057188;28;20536;-68
2023/10/08 01:40:20;;;;;;;4.63;2.20;;;;;;;16.65;100.00;101647.84;2057166;28;20445;-68
2023/10/08 01:41:33;;;;;;;3.40;1.80;;;;;;;15.89;100.00;101531.59;2056598;28;20213;-68
2023/10/08 01:42:38;;;;;;;5.97;2.10;;;;;;;16.47;100.00;101620.91;2057071;28;20507;-68
2023/10/08 01:43:39;;;;;;;2.87;1.63;;;;;;;16.54;100.00;101638.25;2056972;28;20528;-67
2023/10/08 01:44:39;;;;;;;3.47;1.70;;;;;;;16.54;100.00;101638.25;2057235;28;20460;-68
2023/10/08 01:45:40;;;;;;;3.63;1.60;;;;;;;16.52;100.00;101645.53;2057154;28;20577;-68
2023/10/08 01:46:41;;;;;;;2.60;1.60;;;;;;;16.52;100.00;101638.69;2056755;28;20194;-68
2023/10/08 01:47:43;;;;;;;3.30;1.90;;;;;;;16.53;100.00;101634.66;2056340;28;20477;-68
2023/10/08 01:48:44;;;;;;;2.33;1.33;;;;;;;16.49;100.00;101641.63;2056481;28;20809;-67
2023/10/08 01:49:46;;;;;;;4.63;1.90;;;;;;;16.48;100.00;101635.22;2057189;28;20430;-67
2023/10/08 01:50:47;;;;;;;3.83;1.77;;;;;;;16.03;100.00;101564.72;2057762;28;20428;-68
2023/10/08 01:51:49;;;;;;;3.10;1.50;;;;;;;16.50;100.00;101629.19;2057170;28;20456;-68
2023/10/08 01:52:51;;;;;;;5.13;2.30;;;;;;;16.48;100.00;101638.03;2057431;28;20450;-68
2023/10/08 01:53:58;;;;;;;3.10;1.33;;;;;;;16.50;100.00;101629.94;2057177;28;20457;-68
2023/10/08 01:54:59;;;;;;;3.40;1.60;;;;;;;16.40;100.00;101647.09;2057278;28;20438;-68
2023/10/08 01:55:59;;;;;;;4.37;2.33;;;;;;;16.40;100.00;101628.28;2057261;28;20958;-68
2023/10/08 01:56:59;;;;;;;3.90;1.97;;;;;;;16.42;100.00;101635.47;2056142;28;20201;-68
2023/10/08 01:58:00;;;;;;;4.77;2.17;;;;;;;16.43;100.00;101632.19;2056209;28;20174;-67
2023/10/08 01:59:00;;;;;;;5.03;2.20;;;;;;;16.45;100.00;101627.72;2057045;28;20210;-67
2023/10/08 02:00:01;;;;;;;5.17;1.23;;;;;;;16.42;100.00;101636.22;2057656;28;20182;-68
2023/10/08 02:01:05;;;;;;;4.63;2.07;;;;;;;16.36;100.00;101626.81;2057019;28;20206;-67
2023/10/08 02:02:09;;;;;;;6.00;1.93;;;;;;;16.35;100.00;101622.44;2057100;28;20655;-67
2023/10/08 02:03:09;;;;;;;4.43;2.13;;;;;;;16.38;100.00;101627.13;2056797;28;20538;-67
2023/10/08 02:04:12;;;;;;;3.77;2.10;;;;;;;15.72;100.00;101512.59;2057147;28;20447;-67
2023/10/08 02:05:15;;;;;;;5.20;2.00;;;;;;;16.34;100.00;101623.69;2057079;28;20191;-67
2023/10/08 02:06:15;;;;;;;3.17;1.63;;;;;;;16.34;100.00;101613.25;2057167;28;20454;-67
2023/10/08 02:07:16;;;;;;;4.20;1.90;;;;;;;16.40;100.00;101621.91;2056167;28;20488;-67
2023/10/08 02:08:19;;;;;;;5.87;1.90;;;;;;;16.37;100.00;101614.38;2056360;28;20649;-67
2023/10/08 02:09:26;;;;;;;3.50;1.50;;;;;;;16.04;100.00;101591.44;2056978;28;20585;-68
2023/10/08 02:10:26;;;;;;;4.10;2.00;;;;;;;16.09;100.00;101590.88;2057443;28;20465;-67
2023/10/08 02:11:27;;;;;;;4.77;2.17;;;;;;;16.31;100.00;101627.38;2056748;28;20541;-67
2023/10/08 02:12:28;;;;;;;3.40;1.60;;;;;;;16.32;100.00;101628.91;2057305;28;20206;-67
2023/10/08 02:13:28;;;;;;;3.23;1.60;;;;;;;16.33;100.00;101624.88;2057139;28;20461;-67
2023/10/08 02:14:31;;;;;;;3.80;1.60;;;;;;;16.37;100.00;101628.38;2057103;28;20344;-67
2023/10/08 02:15:32;;;;;;;3.10;1.57;;;;;;;16.30;100.00;101617.41;2057144;28;20251;-67
2023/10/08 02:16:33;;;;;;;2.60;1.40;;;;;;;16.37;100.00;101623.56;2056476;28;20485;-67
2023/10/08 02:17:34;;;;;;;4.30;1.77;;;;;;;16.43;100.00;101621.78;2055809;28;20212;-67
2023/10/08 02:18:35;;;;;;;4.50;2.03;;;;;;;16.38;100.00;101619.53;2056959;28;20430;-67
2023/10/08 02:19:37;;;;;;;3.20;2.00;;;;;;;16.41;100.00;101626.28;2057447;28;20452;-68
2023/10/08 02:20:39;;;;;;;3.63;1.93;;;;;;;16.02;100.00;101565.94;2057052;28;20261;-67
2023/10/08 02:21:40;;;;;;;4.90;2.07;;;;;;;16.39;100.00;101623.16;2056701;28;20444;-67
2023/10/08 02:22:40;;;;;;;4.87;1.87;;;;;;;16.38;100.00;101613.13;2056745;28;20533;-67
2023/10/08 02:23:43;;;;;;;4.90;1.90;;;;;;;16.42;100.00;101619.44;2056322;28;20194;-67
2023/10/08 02:24:44;;;;;;;3.57;1.80;;;;;;;16.42;100.00;101613.06;2056987;28;20250;-67
2023/10/08 02:25:44;;;;;;;3.77;1.77;;;;;;;16.35;100.00;101606.41;2056485;28;20513;-68
2023/10/08 02:26:44;;;;;;;3.20;1.80;;;;;;;16.23;100.00;101584.03;2056351;28;20301;-67
2023/10/08 02:27:45;;;;;;;4.27;1.97;;;;;;;16.44;100.00;101611.41;2055785;28;20179;-67
2023/10/08 02:28:46;;;;;;;3.73;1.83;;;;;;;16.39;100.00;101603.56;2057325;28;20266;-67
2023/10/08 02:29:46;;;;;;;4.73;2.07;;;;;;;16.49;100.00;101622.78;2056905;28;20678;-67
2023/10/08 02:30:47;;;;;;;5.33;1.90;;;;;;;16.55;100.00;101614.63;2056865;28;20618;-67
2023/10/08 02:31:47;;;;;;;3.50;1.80;;;;;;;16.16;100.00;101548.72;2056951;28;20272;-67
2023/10/08 02:32:49;;;;;;;4.97;1.77;;;;;;;16.55;100.00;101607.00;2056480;28;20323;-67
2023/10/08 02:33:49;;;;;;;2.43;1.40;;;;;;;16.58;100.00;101611.72;2056824;28;20575;-67
2023/10/08 02:34:53;;;;;;;2.83;1.60;;;;;;;16.11;100.00;101543.69;2056459;28;20419;-67
2023/10/08 02:35:53;;;;;;;7.00;2.10;;;;;;;16.53;100.00;101606.69;2056507;28;20175;-67
2023/10/08 02:36:56;;;;;;;2.77;1.47;;;;;;;16.53;100.00;101605.88;2056897;28;20529;-67
2023/10/08 02:37:57;;;;;;;3.03;1.90;;;;;;;16.49;100.00;101605.25;2055985;28;20234;-67
2023/10/08 02:38:57;;;;;;;4.37;1.97;;;;;;;16.53;100.00;101606.69;2056850;28;20460;-67
2023/10/08 02:39:58;;;;;;;4.13;1.80;;;;;;;16.59;100.00;101612.50;2056648;28;20206;-67
2023/10/08 02:40:59;;;;;;;3.27;2.00;;;;;;;16.44;100.00;101598.19;2056663;28;20285;-68
2023/10/08 02:41:59;;;;;;;3.53;1.70;;;;;;;16.55;100.00;101600.63;2056852;28;20238;-67
2023/10/08 02:43:00;;;;;;;6.10;2.10;;;;;;;16.57;100.00;101603.00;2056597;28;20463;-67
2023/10/08 02:44:01;;;;;;;4.53;1.83;;;;;;;16.57;100.00;101597.41;2056918;28;20175;-67
2023/10/08 02:45:02;;;;;;;4.73;2.10;;;;;;;16.55;100.00;101597.84;2057140;28;20629;-67
2023/10/08 02:46:14;;;;;;;4.03;1.93;;;;;;;16.52;100.00;101603.56;2057198;28;20596;-67
2023/10/08 02:47:20;;;;;;;2.70;1.83;;;;;;;16.51;100.00;101597.16;2056834;28;20409;-67
2023/10/08 02:48:21;;;;;;;3.87;2.00;;;;;;;16.52;100.00;101607.13;2055834;28;20929;-68
2023/10/08 02:49:24;;;;;;;3.80;2.20;;;;;;;16.52;100.00;101604.31;2056936;28;20465;-68
2023/10/08 02:50:27;;;;;;;3.97;1.97;;;;;;;16.49;100.00;101606.00;2056847;28;20210;-68
2023/10/08 02:51:28;;;;;;;3.07;1.57;;;;;;;16.54;100.00;101607.47;2056618;28;20904;-68
2023/10/08 02:52:29;;;;;;;4.60;1.90;;;;;;;16.52;100.00;101613.50;2056872;28;20446;-68
2023/10/08 02:53:29;;;;;;;2.97;1.70;;;;;;;16.54;100.00;101599.09;2056767;28;20949;-67
2023/10/08 02:54:36;;;;;;;6.07;2.23;;;;;;;16.50;100.00;101604.00;2055842;28;20240;-68
2023/10/08 02:55:46;;;;;;;2.97;1.50;;;;;;;16.54;100.00;101610.28;2056814;28;20170;-67
2023/10/08 02:56:51;;;;;;;4.07;2.13;;;;;;;16.01;100.00;101524.44;2056188;28;20418;-68
2023/10/08 02:57:52;;;;;;;3.33;1.53;;;;;;;16.15;100.00;101540.78;2055590;28;20411;-67
2023/10/08 02:58:54;;;;;;;4.93;1.50;;;;;;;16.46;100.00;101600.53;2057177;28;20418;-67
2023/10/08 02:59:55;;;;;;;4.33;2.13;;;;;;;16.44;100.00;101597.41;2056974;28;20183;-68
2023/10/08 03:00:55;;;;;;;3.37;1.87;;;;;;;16.43;100.00;101598.63;2056703;28;20441;-67
2023/10/08 03:01:56;;;;;;;6.17;1.60;;;;;;;16.49;100.00;101592.00;2056895;28;20236;-67
2023/10/08 03:02:58;;;;;;;4.23;1.57;;;;;;;16.49;100.00;101594.06;2056578;28;20650;-67
2023/10/08 03:04:04;;;;;;;3.60;1.90;;;;;;;16.48;100.00;101588.91;2056815;28;20206;-67
2023/10/08 03:05:08;;;;;;;4.80;1.73;;;;;;;16.47;100.00;101592.94;2056571;28;20434;-67
2023/10/08 03:06:11;;;;;;;3.70;1.90;;;;;;;16.48;100.00;101595.25;2055927;28;20438;-67
2023/10/08 03:07:21;;;;;;;3.63;1.73;;;;;;;16.48;100.00;101587.66;2055560;28;20734;-67
2023/10/08 03:08:21;;;;;;;2.67;1.60;;;;;;;16.42;100.00;101594.25;2055010;28;20422;-67
2023/10/08 03:09:31;;;;;;;4.50;2.10;;;;;;;16.41;100.00;101584.31;2056480;28;20430;-67
2023/10/08 03:10:33;;;;;;;4.23;2.20;;;;;;;16.42;100.00;101587.91;2056682;28;20172;-67
2023/10/08 03:11:36;;;;;;;3.67;1.57;;;;;;;16.39;100.00;101593.16;2056919;28;20425;-67
2023/10/08 03:12:36;;;;;;;3.33;1.70;;;;;;;16.42;100.00;101583.06;2057204;28;20429;-67
2023/10/08 03:13:38;;;;;;;4.80;1.80;;;;;;;16.43;100.00;101582.63;2056262;28;20455;-67
2023/10/08 03:14:49;;;;;;;5.30;1.60;;;;;;;16.35;100.00;101566.50;2056642;28;20183;-67
2023/10/08 03:17:07;;;;;;;3.53;1.57;;;;;;;16.42;100.00;101569.06;2055858;28;20487;-67
2023/10/08 03:18:14;;;;;;;3.73;1.97;;;;;;;16.48;100.00;101583.31;2055807;28;20427;-67
2023/10/08 03:19:18;;;;;;;3.43;1.70;;;;;;;16.45;100.00;101580.16;2056674;28;20754;-68
2023/10/08 03:20:29;;;;;;;4.17;1.70;;;;;;;16.49;100.00;101583.63;2056755;28;20454;-68
2023/10/08 03:22:45;;;;;;;3.43;1.77;;;;;;;16.47;100.00;101581.75;2055987;28;20433;-67
2023/10/08 03:23:47;;;;;;;3.60;1.60;;;;;;;16.45;100.00;101580.16;2056618;28;20465;-67
2023/10/08 03:24:48;;;;;;;2.50;1.43;;;;;;;16.40;100.00;101577.91;2056419;28;20469;-67
2023/10/08 03:26:01;;;;;;;3.67;2.30;;;;;;;16.42;100.00;101580.28;2056421;28;20500;-67
2023/10/08 03:27:41;;;;;;;4.10;1.60;;;;;;;16.40;100.00;101568.75;2055975;28;20203;-67
2023/10/08 03:28:34;;;;;;;4.50;1.80;;;;;;;16.39;100.00;101576.34;2053077;28;20462;-67
2023/10/08 03:29:41;;;;;;;3.77;1.53;;;;;;;16.20;100.00;101559.78;2056561;28;20871;-67
2023/10/08 03:30:49;;;;;;;3.40;1.47;;;;;;;16.33;100.00;101568.94;2056527;28;20936;-67
2023/10/08 03:31:50;;;;;;;4.17;1.90;;;;;;;16.39;100.00;101575.59;2056602;28;20430;-67
2023/10/08 03:32:54;;;;;;;3.77;1.70;;;;;;;16.39;100.00;101576.34;2056287;28;20568;-68
2023/10/08 03:33:55;;;;;;;4.57;1.53;;;;;;;16.38;100.00;101571.19;2056525;28;20226;-67
2023/10/08 03:34:56;;;;;;;2.83;1.50;;;;;;;16.38;100.00;101568.38;2056282;28;20481;-68
2023/10/08 03:35:56;;;;;;;5.73;1.93;;;;;;;15.87;100.00;101492.13;2056286;28;20209;-68
2023/10/08 03:37:05;;;;;;;3.07;1.80;;;;;;;16.42;100.00;101578.28;2055750;28;20183;-68
2023/10/08 03:38:21;;;;;;;3.57;1.70;;;;;;;15.84;100.00;101481.06;2048042;28;20172;-68
2023/10/08 03:39:24;;;;;;;5.33;2.37;;;;;;;16.39;100.00;101572.78;2049096;28;20901;-68
2023/10/08 03:40:43;;;;;;;4.90;1.90;;;;;;;16.38;100.00;101571.97;2056420;28;20440;-68
2023/10/08 03:41:57;;;;;;;4.50;1.57;;;;;;;16.36;100.00;101568.06;2056429;28;20428;-68
2023/10/08 03:42:58;;;;;;;5.53;1.73;;;;;;;16.31;100.00;101575.00;2056084;28;20431;-67
2023/10/08 03:44:02;;;;;;;5.07;2.13;;;;;;;15.79;100.00;101487.22;2056966;28;20419;-67
2023/10/08 03:45:10;;;;;;;3.93;1.40;;;;;;;16.37;100.00;101566.81;2063891;28;20188;-67
2023/10/08 03:46:15;;;;;;;3.00;1.40;;;;;;;16.40;100.00;101563.16;2056345;28;20405;-67
2023/10/08 03:47:18;;;;;;;3.90;1.67;;;;;;;16.41;100.00;101570.31;2056164;28;20402;-67
2023/10/08 03:48:22;;;;;;;3.43;1.70;;;;;;;16.28;100.00;101547.13;2055365;28;20491;-67
2023/10/08 03:50:32;;;;;;;5.73;2.20;;;;;;;16.37;100.00;101561.22;2056574;28;20508;-67
2023/10/08 03:51:39;;;;;;;5.57;1.60;;;;;;;16.39;100.00;101564.41;2056190;28;20514;-67
2023/10/08 03:52:39;;;;;;;3.93;2.07;;;;;;;16.38;100.00;101565.59;2056431;28;20517;-67
2023/10/08 03:54:29;;;;;;;2.80;1.80;;;;;;;16.28;100.00;101550.72;2056476;28;20446;-67
2023/10/08 03:55:27;;;;;;;2.97;1.67;;;;;;;16.39;100.00;101561.59;2055318;28;20214;-67
2023/10/08 03:56:31;;;;;;;2.53;1.50;;;;;;;16.40;100.00;101561.13;2056087;28;20993;-67
2023/10/08 03:57:44;;;;;;;3.00;1.60;;;;;;;16.44;100.00;101558.25;2055477;28;20441;-67
2023/10/08 03:58:46;;;;;;;3.73;1.53;;;;;;;16.20;100.00;101518.63;2056747;28;20405;-67
2023/10/08 03:59:48;;;;;;;4.00;1.70;;;;;;;16.48;100.00;101560.91;2063850;28;20448;-67
2023/10/08 04:00:49;;;;;;;2.90;1.60;;;;;;;16.48;100.00;101558.88;2063519;28;20877;-67
2023/10/08 04:01:54;;;;;;;2.80;1.70;;;;;;;16.50;100.00;101554.41;2053656;28;20465;-67
2023/10/08 04:02:55;;;;;;;4.43;1.90;;;;;;;16.03;100.00;101480.06;2056345;28;20222;-67
2023/10/08 04:03:59;;;;;;;3.53;1.30;;;;;;;16.09;100.00;101489.44;2056376;28;20476;-67
2023/10/08 04:05:15;;;;;;;3.90;1.70;;;;;;;16.52;100.00;101549.16;2056055;28;20450;-67
2023/10/08 04:06:15;;;;;;;2.80;1.60;;;;;;;16.50;100.00;101554.41;2055833;28;20476;-67
2023/10/08 04:08:58;;;;;;;2.63;1.60;;;;;;;16.11;100.00;101486.97;2056110;28;20201;-67
2023/10/08 04:11:28;;;;;;;3.53;1.73;;;;;;;16.51;100.00;101552.41;2056200;28;20430;-67
2023/10/08 04:12:28;;;;;;;2.47;1.47;;;;;;;16.51;100.00;101541.22;2056328;28;20528;-67
2023/10/08 04:13:30;;;;;;;2.77;1.50;;;;;;;16.48;100.00;101539.28;2056204;28;20457;-67
2023/10/08 04:14:31;;;;;;;2.63;1.33;;;;;;;16.49;100.00;101536.06;2056163;28;20209;-67
2023/10/08 04:15:31;;;;;;;4.43;2.20;;;;;;;16.57;100.00;101530.25;2056200;28;20969;-67
2023/10/08 04:16:37;;;;;;;3.00;1.70;;;;;;;16.58;100.00;101536.16;2055471;28;20202;-67
2023/10/08 04:17:43;;;;;;;4.47;1.80;;;;;;;16.62;100.00;101533.22;2055315;28;20203;-67
2023/10/08 04:18:46;;;;;;;2.33;1.50;;;;;;;16.63;100.00;101525.63;2056300;28;20832;-67
2023/10/08 04:19:47;;;;;;;3.43;1.70;;;;;;;16.70;100.00;101528.97;2055488;28;20605;-67
2023/10/08 04:21:00;;;;;;;3.50;1.77;;;;;;;16.71;100.00;101522.88;2055867;28;20460;-67
2023/10/08 04:22:01;;;;;;;3.60;1.63;;;;;;;16.74;100.00;101529.59;2056433;28;20490;-67
2023/10/08 04:23:13;;;;;;;3.80;2.10;;;;;;;16.43;100.00;101486.72;2056282;28;20469;-67
2023/10/08 04:24:14;;;;;;;5.90;1.40;;;;;;;16.78;100.00;101525.47;2056081;28;20557;-67
2023/10/08 04:25:15;;;;;;;4.03;1.60;;;;;;;16.80;100.00;101531.38;2056529;28;20461;-67
2023/10/08 04:26:15;;;;;;;4.53;2.10;;;;;;;16.77;100.00;101520.31;2056266;28;20446;-67
2023/10/08 04:27:16;;;;;;;3.23;1.87;;;;;;;16.76;100.00;101518.75;2055901;28;20278;-67
2023/10/08 04:28:20;;;;;;;2.80;1.40;;;;;;;16.01;100.00;101393.84;2055540;28;20576;-67
2023/10/08 04:29:22;;;;;;;4.33;1.50;;;;;;;16.84;100.00;101517.25;2055750;28;20281;-67
2023/10/08 04:30:28;;;;;;;3.10;1.40;;;;;;;16.90;100.00;101519.03;2056238;28;20500;-67
2023/10/08 04:31:54;;;;;;;3.43;1.60;;;;;;;16.94;100.00;101527.28;2055894;28;20504;-67
2023/10/08 04:32:52;;;;;;;2.43;1.47;;;;;;;16.94;100.00;101513.28;2056062;28;20489;-67
2023/10/08 04:33:54;;;;;;;4.00;1.80;;;;;;;16.94;100.00;101518.91;2056233;28;20446;-67
2023/10/08 04:34:56;;;;;;;3.17;1.70;;;;;;;17.02;100.00;101520.22;2055202;28;20256;-67
2023/10/08 04:36:01;;;;;;;3.47;1.70;;;;;;;17.06;100.00;101521.63;2056156;28;20939;-67
2023/10/08 04:37:03;;;;;;;3.00;1.57;;;;;;;17.12;100.00;101522.59;2055507;28;20786;-67
2023/10/08 04:38:08;;;;;;;4.00;2.00;;;;;;;17.17;99.23;101519.22;2055559;28;20418;-67
2023/10/08 04:39:13;;;;;;;4.10;2.00;;;;;;;17.20;100.00;101514.72;2056347;28;20513;-67
2023/10/08 04:40:16;;;;;;;3.93;1.80;;;;;;;17.26;99.71;101518.53;2055639;28;20453;-67
2023/10/08 04:41:19;;;;;;;3.57;1.97;;;;;;;17.06;98.45;101490.84;2056179;28;20504;-68
2023/10/08 04:42:25;;;;;;;3.33;1.70;;;;;;;17.33;98.62;101515.47;2055840;28;20464;-67
2023/10/08 04:43:27;;;;;;;3.47;2.00;;;;;;;17.40;99.63;101512.41;2056044;28;20570;-67
2023/10/08 04:44:31;;;;;;;4.70;1.97;;;;;;;17.45;98.30;101520.22;2055749;28;20451;-67
2023/10/08 04:45:34;;;;;;;4.57;2.07;;;;;;;16.99;98.97;101437.09;2056124;28;20449;-67
2023/10/08 04:47:41;;;;;;;2.90;1.60;;;;;;;17.54;97.61;101509.06;2057485;28;20509;-67
2023/10/08 04:48:43;;;;;;;4.53;2.20;;;;;;;17.18;96.80;101452.78;2058318;28;20512;-67
2023/10/08 04:49:45;;;;;;;3.50;1.90;;;;;;;17.63;96.36;101505.53;2058725;28;20421;-68
2023/10/08 04:50:58;;;;;;;3.10;1.83;;;;;;;17.71;96.61;101506.84;2058949;28;20928;-67
2023/10/08 04:52:05;;;;;;;3.17;1.53;;;;;;;17.74;97.15;101509.50;2051290;28;20811;-67
2023/10/08 04:53:08;;;;;;;3.30;1.63;;;;;;;17.82;95.81;101510.78;2058481;28;20501;-67
2023/10/08 04:54:16;;;;;;;3.77;1.70;;;;;;;17.82;93.77;101507.97;2059061;28;20491;-67
2023/10/08 04:55:20;;;;;;;4.03;1.97;;;;;;;17.87;92.51;101507.38;2059092;28;20473;-67
2023/10/08 04:56:22;;;;;;;3.33;1.57;;;;;;;17.96;90.42;101509.44;2058856;28;20441;-67
2023/10/08 04:57:25;;;;;;;5.83;1.87;;;;;;;18.02;89.46;101506.34;2058067;28;20512;-68
2023/10/08 04:58:33;;;;;;;3.97;1.70;;;;;;;18.03;88.50;101507.13;2057858;28;20501;-68
2023/10/08 04:59:34;;;;;;;4.27;1.73;;;;;;;17.42;88.71;101407.03;2058588;28;20445;-67
2023/10/08 05:02:12;;;;;;;4.40;1.27;;;;;;;18.23;83.56;101505.47;2058621;28;20209;-68
2023/10/08 05:03:16;;;;;;;3.33;1.70;;;;;;;18.29;83.75;101505.66;2057861;28;20480;-67
2023/10/08 05:04:46;;;;;;;5.30;1.80;;;;;;;18.32;82.29;101513.16;2058824;28;20457;-68
2023/10/08 05:06:07;;;;;;;2.60;1.20;;;;;;;18.38;81.97;101510.53;2058466;28;20421;-67
2023/10/08 05:07:17;;;;;;;3.77;1.60;;;;;;;18.50;80.24;101515.22;2058291;28;20405;-67
2023/10/08 05:08:28;;;;;;;4.93;1.67;;;;;;;18.56;79.55;101516.94;2057501;28;20410;-67